Detall de PIREP

Printer-friendly versionPDF version

[2017/10/07 03:42:00]
Flight IATA:CT0001
Pilot Number:041
Company ICAO:CAT
Aircraft Type:B738/F
PAX:83
Departing Airport: LEMH
Destination Airport: LEVC
Alternate Airport:LEBL
Online: VATSIM
Route:EPAMA A33 ARGOR
Flight Level:FL230
No Slew and time accel
No pause
Crash detect
Detect pilot in Cockpit between each 30 and 45 minutes
03:42 Zero fuel Weight: 135679 Lbs, Fuel Weight: 16108 Lbs
03:42 VATSIM:LEMH 070330Z AUTO 02022KT 9999 NCD 17/07 Q1020
03:42 VATSIM:LEVC 070330Z 30003KT 260V330 9999 FEW018 16/14 Q1020 NOSIG
03:43 VOICE CATALONIAN
03:52 Parking Brakes off
04:03 Take-off
04:03 Take off Weight: 150706 Lbs
04:03 Wind: 018º @ 019 Knots Heading: 009º
04:03 POS N39º 52´ 09´´ E004º 13´ 11´´
04:03 Gear Up: 178 Knots
04:03 Flaps:4 at 178 Knots
04:03 Flaps:3 at 169 Knots
04:03 Flaps:2 at 179 Knots
04:04 Flaps:1 at 190 Knots
04:04 Flaps:0 at 202 Knots
04:13 TOC
04:13 Fuel Weight: 12502 Lb
04:18 Wind:330º@019 Knots Heading: 283º Ground Speed: 422 Knots Altitude 23198 ft
04:28 TOD
04:28 Fuel Weight: 10737 Lb
04:33 Wind:342º@014 Knots Heading: 267º Ground Speed: 366 Knots Altitude 14475 ft
04:40 Flaps:1 at 251 Knots
04:40 Flaps:2 at 235 Knots
04:41 Flaps:3 at 214 Knots
04:41 Flaps:4 at 203 Knots
04:42 Flaps:5 at 201 Knots
04:42 Gear Down: 179 Knots
04:42 Flaps:6 at 169 Knots
04:43 Flaps:7 at 151 Knots
04:43 Flaps:8 at 146 Knots
04:46 TouchDown:Rate -98 ft/min Speed: 131 Knots
04:46 VATSIM:LEVC 070430Z VRB02KT 9999 FEW018 15/14 Q1020 NOSIG
04:46 Land
04:46 Wind:359º@001 Knots
04:46 Heading: 295º
04:46 Flight Duration: 00:43
04:46 Landing Weight: 145446 Lbs
04:46 POS N39º 29´ 29´´ W000º 29´ 14´´
04:50 Parking brakes on
04:50 Block to Block Duration: 00:58
04:50 Final Fuel: 9336 Lbls
04:50 Spent Fuel: 6772 Lbls
04:50 Flight Length: 249 NM
04:50 TOD Land Length: 85 NM

Exportar CSV

Powered by Drupal - Modified by Danger4k